Time;durP1;ratioP1;P1;durP2;ratioP2;P2;SDS_P1;SDS_P2;PMS_P1;PMS_P2;Temp;Humidity;BMP_temperature;BMP_pressure;BME280_temperature;BME280_humidity;BME280_pressure;Samples;Min_cycle;Max_cycle;Signal;HPM_P1;HPM_P2
2022/07/16 00:02:08;;;;;;;5.00;1.35;;;;;;;11.38;71.25;99617.97;8432070;28;20047;-75
2022/07/16 00:06:09;;;;;;;3.25;1.50;;;;;;;11.36;71.28;99612.09;8427216;28;20136;-75
2022/07/16 00:10:10;;;;;;;6.82;1.50;;;;;;;11.31;71.44;99620.31;8432400;28;20044;-74
2022/07/16 00:14:11;;;;;;;5.25;1.65;;;;;;;11.28;71.41;99623.59;8430976;28;20048;-75
2022/07/16 00:22:31;;;;;;;5.47;1.60;;;;;;;11.22;71.72;99613.97;8432115;28;20052;-74
2022/07/16 00:26:33;;;;;;;4.18;1.42;;;;;;;11.27;71.47;99619.28;8394774;28;20112;-74
2022/07/16 00:30:34;;;;;;;7.07;1.77;;;;;;;11.28;71.70;99618.19;8431849;28;20052;-75
2022/07/16 00:34:35;;;;;;;5.05;1.58;;;;;;;11.26;71.94;99604.16;8431252;28;20127;-75
2022/07/16 00:38:36;;;;;;;2.42;1.40;;;;;;;11.28;71.94;99601.97;8431448;28;20052;-74
2022/07/16 00:42:37;;;;;;;4.85;1.58;;;;;;;11.34;71.63;99606.19;8411987;28;20051;-74
2022/07/16 00:46:39;;;;;;;3.92;1.67;;;;;;;11.32;71.74;99602.97;8385357;28;20046;-74
2022/07/16 00:50:40;;;;;;;7.10;1.65;;;;;;;11.35;71.92;99601.56;8426088;28;20051;-75
2022/07/16 00:54:42;;;;;;;2.92;1.58;;;;;;;11.35;72.00;99602.38;8423655;28;20625;-75
2022/07/16 00:58:44;;;;;;;3.75;1.45;;;;;;;11.34;72.20;99594.56;8393837;28;20343;-74
2022/07/16 01:02:45;;;;;;;5.05;1.70;;;;;;;11.35;72.01;99591.56;8405463;28;20415;-75
2022/07/16 01:06:46;;;;;;;6.00;1.75;;;;;;;11.37;72.10;99593.94;8409914;28;20056;-74
2022/07/16 01:10:48;;;;;;;4.55;1.60;;;;;;;11.39;71.93;99584.44;8396880;28;20505;-75
2022/07/16 01:14:49;;;;;;;5.03;1.65;;;;;;;11.40;72.04;99588.75;8410893;28;20101;-75
2022/07/16 01:18:50;;;;;;;6.72;2.30;;;;;;;11.40;71.98;99588.75;8425166;28;20048;-74
2022/07/16 01:22:54;;;;;;;9.40;1.52;;;;;;;11.38;72.20;99590.94;8413782;28;20089;-74
2022/07/16 01:26:55;;;;;;;10.20;2.42;;;;;;;11.38;72.36;99585.53;8420844;28;20384;-74
2022/07/16 01:30:56;;;;;;;7.80;2.25;;;;;;;11.41;72.31;99576.84;8426642;28;20075;-75
2022/07/16 01:34:57;;;;;;;5.43;1.67;;;;;;;11.42;72.29;99570.31;8427151;28;20040;-74
2022/07/16 01:38:58;;;;;;;9.30;1.70;;;;;;;11.39;72.20;99576.31;8423662;28;20105;-75
2022/07/16 01:42:59;;;;;;;6.07;1.70;;;;;;;11.39;72.26;99554.69;8427885;28;20491;-75
2022/07/16 01:47:00;;;;;;;4.75;1.65;;;;;;;11.37;72.22;99562.28;8425829;28;20048;-74
2022/07/16 01:51:01;;;;;;;16.08;1.70;;;;;;;11.37;72.34;99562.28;8424347;28;20055;-75
2022/07/16 01:55:02;;;;;;;5.72;1.80;;;;;;;11.40;72.25;99567.13;8384186;28;20047;-75
2022/07/16 01:59:03;;;;;;;12.45;1.70;;;;;;;11.41;72.51;99563.31;8391860;28;20479;-75
2022/07/16 02:03:04;;;;;;;3.78;1.73;;;;;;;11.41;72.62;99557.91;8374977;28;20094;-75
2022/07/16 02:07:06;;;;;;;4.32;1.70;;;;;;;11.39;72.64;99543.88;8421981;28;20052;-74
2022/07/16 02:11:07;;;;;;;8.80;1.90;;;;;;;11.42;72.77;99542.44;8427054;28;20048;-75
2022/07/16 02:15:09;;;;;;;8.18;1.80;;;;;;;11.41;72.79;99547.09;8382838;28;20044;-74
2022/07/16 02:19:10;;;;;;;3.63;1.58;;;;;;;11.40;72.79;99540.06;8409087;28;20131;-75
2022/07/16 02:23:11;;;;;;;8.23;1.98;;;;;;;11.35;73.01;99544.78;8426955;28;20063;-75
2022/07/16 02:27:12;;;;;;;10.63;1.90;;;;;;;11.35;73.01;99548.28;8427401;28;20044;-74
2022/07/16 02:31:13;;;;;;;4.28;1.80;;;;;;;11.38;72.62;99542.28;8391757;28;20415;-75
2022/07/16 02:35:14;;;;;;;4.88;2.05;;;;;;;11.41;72.46;99544.38;8427342;28;20044;-74
2022/07/16 02:39:15;;;;;;;9.90;2.42;;;;;;;11.51;71.99;99529.03;8425814;28;20052;-76
2022/07/16 02:43:16;;;;;;;7.25;1.80;;;;;;;11.53;72.05;99524.09;8423996;28;20071;-74
2022/07/16 02:47:17;;;;;;;16.48;2.30;;;;;;;11.52;72.50;99525.22;8422364;28;20040;-75
2022/07/16 02:51:18;;;;;;;9.63;2.08;;;;;;;11.54;72.72;99523.00;8421603;28;20415;-74
2022/07/16 02:55:19;;;;;;;12.77;1.83;;;;;;;11.59;72.28;99531.00;8424163;28;20102;-75
2022/07/16 02:59:20;;;;;;;7.15;2.10;;;;;;;11.66;71.92;99528.69;8424107;28;20373;-74
2022/07/16 03:03:21;;;;;;;11.18;1.90;;;;;;;11.69;71.50;99509.94;8406612;28;20052;-75
2022/07/16 03:07:22;;;;;;;10.70;3.50;;;;;;;11.78;71.15;99523.56;8425127;28;20071;-74
2022/07/16 03:11:23;;;;;;;7.15;2.20;;;;;;;11.85;70.97;99518.53;8415993;28;20047;-75
2022/07/16 03:15:24;;;;;;;6.35;2.15;;;;;;;11.89;71.01;99514.13;8408310;28;20531;-74
2022/07/16 03:19:25;;;;;;;7.25;2.00;;;;;;;11.96;70.44;99519.06;8411096;28;20046;-74
2022/07/16 03:23:25;;;;;;;9.80;2.03;;;;;;;12.07;69.57;99515.81;8402705;28;20045;-74
2022/07/16 03:27:27;;;;;;;10.43;2.00;;;;;;;12.21;68.94;99516.53;8363528;28;20048;-74
2022/07/16 03:31:28;;;;;;;8.18;2.00;;;;;;;12.32;68.38;99516.31;8376179;28;20072;-76
2022/07/16 03:35:29;;;;;;;12.02;2.40;;;;;;;12.44;67.90;99519.22;8429970;28;20056;-75
2022/07/16 03:39:30;;;;;;;6.65;2.45;;;;;;;12.52;67.51;99518.50;8430469;28;20055;-75
2022/07/16 03:43:31;;;;;;;7.70;1.73;;;;;;;12.58;67.34;99514.53;8429882;28;20047;-74
2022/07/16 03:47:32;;;;;;;6.53;1.90;;;;;;;12.62;67.94;99531.75;8367551;28;20052;-75
2022/07/16 03:51:34;;;;;;;7.40;1.88;;;;;;;12.63;68.05;99522.53;8339293;28;1242703;-75
2022/07/16 03:55:35;;;;;;;6.97;1.95;;;;;;;12.65;68.49;99514.88;8415007;28;20543;-74
2022/07/16 03:59:36;;;;;;;6.80;1.73;;;;;;;12.68;68.25;99508.84;8431942;28;20048;-74
2022/07/16 04:03:37;;;;;;;6.95;1.58;;;;;;;12.79;67.66;99518.28;8419993;28;20135;-74
2022/07/16 04:07:38;;;;;;;4.93;1.60;;;;;;;12.89;66.98;99517.22;8430425;28;20047;-74
2022/07/16 04:11:39;;;;;;;10.02;1.42;;;;;;;12.97;66.57;99516.44;8431703;28;20126;-74
2022/07/16 04:15:40;;;;;;;4.13;1.33;;;;;;;13.05;65.98;99508.34;8431045;28;20561;-74
2022/07/16 04:19:41;;;;;;;7.10;2.20;;;;;;;13.16;65.83;99513.50;8426918;28;20105;-74
2022/07/16 04:23:42;;;;;;;7.93;1.92;;;;;;;13.21;65.70;99516.06;8421476;28;20044;-75
2022/07/16 04:27:43;;;;;;;7.38;1.38;;;;;;;13.31;65.21;99510.34;8430470;28;20047;-76
2022/07/16 04:31:44;;;;;;;9.07;1.50;;;;;;;13.38;64.94;99507.94;8417566;28;20047;-75
2022/07/16 04:35:45;;;;;;;8.75;1.65;;;;;;;13.44;64.61;99514.81;8377627;28;20134;-75
2022/07/16 04:39:46;;;;;;;6.05;1.70;;;;;;;13.49;64.96;99506.50;8428059;28;20101;-76
2022/07/16 04:43:47;;;;;;;10.82;1.67;;;;;;;13.55;65.39;99499.81;8411925;28;20089;-74
2022/07/16 04:47:48;;;;;;;9.73;1.70;;;;;;;13.63;64.75;99501.75;8415461;28;20052;-75
2022/07/16 04:51:49;;;;;;;11.40;1.55;;;;;;;13.70;64.69;99496.63;8423808;28;20135;-74
2022/07/16 04:55:50;;;;;;;4.72;1.50;;;;;;;13.81;64.13;99497.91;8426274;28;20077;-75
2022/07/16 04:59:52;;;;;;;6.95;1.65;;;;;;;13.90;63.83;99496.00;8415924;28;20044;-75
2022/07/16 05:03:52;;;;;;;3.80;1.55;;;;;;;13.99;63.84;99492.47;8429788;28;20635;-76
2022/07/16 05:07:54;;;;;;;9.43;1.50;;;;;;;14.07;63.54;99505.22;8415087;28;20363;-74
2022/07/16 05:11:55;;;;;;;5.95;1.80;;;;;;;14.15;62.05;99502.50;8428235;28;20482;-75
2022/07/16 05:15:57;;;;;;;4.75;1.80;;;;;;;14.23;62.13;99509.03;8429551;28;20040;-75
2022/07/16 05:19:58;;;;;;;7.88;1.70;;;;;;;14.25;62.02;99504.09;8422390;28;20373;-74
2022/07/16 05:23:59;;;;;;;7.18;1.92;;;;;;;14.26;61.81;99492.09;8421699;28;20044;-74
2022/07/16 05:28:00;;;;;;;4.32;1.60;;;;;;;14.27;62.57;99496.41;8410676;28;20100;-75
2022/07/16 05:32:01;;;;;;;7.05;1.63;;;;;;;14.22;62.09;99502.03;8410756;28;20036;-75
2022/07/16 05:36:02;;;;;;;8.93;2.10;;;;;;;14.27;62.86;99496.41;8409950;28;20043;-75
2022/07/16 05:40:03;;;;;;;9.75;1.95;;;;;;;14.39;62.83;99488.41;8406983;28;20064;-75
2022/07/16 05:44:05;;;;;;;7.35;1.80;;;;;;;14.41;62.67;99488.88;8416310;28;20044;-74
2022/07/16 05:48:05;;;;;;;5.43;2.20;;;;;;;14.50;62.76;99497.81;8427606;28;20066;-74
2022/07/16 05:52:07;;;;;;;6.57;2.10;;;;;;;14.60;62.85;99492.00;8428313;28;20136;-76
2022/07/16 05:56:07;;;;;;;6.47;2.28;;;;;;;14.71;62.91;99487.00;8425933;28;20492;-75
2022/07/16 06:00:10;;;;;;;5.15;2.10;;;;;;;14.80;62.76;99485.06;8391087;28;20523;-74
2022/07/16 06:04:11;;;;;;;7.38;2.17;;;;;;;14.88;62.52;99486.13;8390241;28;20056;-74
2022/07/16 06:08:12;;;;;;;6.43;1.85;;;;;;;14.93;63.21;99488.66;8427854;28;20052;-75
2022/07/16 06:12:13;;;;;;;9.48;2.00;;;;;;;14.92;62.79;99481.63;8427460;28;20465;-75
2022/07/16 06:16:14;;;;;;;7.82;1.83;;;;;;;14.94;62.25;99479.38;8427912;28;20102;-75
2022/07/16 06:20:15;;;;;;;4.97;1.85;;;;;;;15.03;62.42;99471.97;8428068;28;20123;-74
2022/07/16 06:24:16;;;;;;;5.72;1.92;;;;;;;15.17;61.83;99461.66;8374941;28;20474;-75
2022/07/16 06:28:17;;;;;;;8.55;2.20;;;;;;;15.24;61.69;99461.91;8427367;28;20055;-74
2022/07/16 06:32:18;;;;;;;6.05;2.03;;;;;;;15.27;61.83;99466.72;8427804;28;20048;-75
2022/07/16 06:36:19;;;;;;;6.95;1.98;;;;;;;15.29;62.34;99464.44;8426528;28;20059;-75
2022/07/16 06:40:20;;;;;;;10.40;2.13;;;;;;;15.61;63.27;99466.47;8370455;28;20499;-74
2022/07/16 06:44:21;;;;;;;5.70;1.90;;;;;;;16.04;61.67;99457.09;8419026;28;20052;-74
2022/07/16 06:48:22;;;;;;;4.82;1.70;;;;;;;16.29;59.34;99453.31;8433699;28;20109;-75
2022/07/16 06:52:23;;;;;;;3.15;1.60;;;;;;;16.48;59.80;99461.75;8414957;28;20051;-75
2022/07/16 06:56:24;;;;;;;6.18;1.67;;;;;;;16.40;59.15;99459.91;8433110;28;20411;-75
2022/07/16 07:00:25;;;;;;;3.25;1.45;;;;;;;16.40;60.08;99459.91;8434075;28;20106;-75
2022/07/16 07:04:26;;;;;;;6.25;1.42;;;;;;;16.66;59.58;99458.84;8432744;28;20481;-75
2022/07/16 07:08:27;;;;;;;3.97;1.08;;;;;;;16.80;58.41;99451.13;8427134;28;20089;-74
2022/07/16 07:12:29;;;;;;;7.97;1.27;;;;;;;16.89;58.74;99443.63;8430679;28;20399;-74
2022/07/16 07:16:29;;;;;;;3.78;1.20;;;;;;;17.04;57.53;99434.72;8432728;28;20121;-75
2022/07/16 07:20:30;;;;;;;2.65;1.00;;;;;;;17.30;56.83;99429.69;8432931;28;20086;-75
2022/07/16 07:24:34;;;;;;;7.72;1.33;;;;;;;17.49;56.11;99429.06;8432480;28;20196;-75
2022/07/16 07:28:35;;;;;;;3.85;1.10;;;;;;;17.74;55.40;99424.31;8432995;28;20040;-77
2022/07/16 07:32:36;;;;;;;3.80;1.20;;;;;;;17.99;55.01;99425.00;8427040;28;20092;-75
2022/07/16 07:36:37;;;;;;;8.90;0.93;;;;;;;18.00;53.82;99432.84;8431922;28;20059;-75
2022/07/16 07:40:38;;;;;;;2.72;1.05;;;;;;;17.95;52.61;99424.91;8425996;28;20048;-74
2022/07/16 07:44:39;;;;;;;8.82;1.20;;;;;;;18.03;54.41;99432.13;8410959;28;20059;-73
2022/07/16 07:48:40;;;;;;;4.18;1.02;;;;;;;18.12;53.24;99424.59;8431742;28;20044;-73
2022/07/16 07:52:41;;;;;;;3.35;1.08;;;;;;;18.26;52.77;99424.16;8427272;28;20113;-74
2022/07/16 07:56:42;;;;;;;4.75;1.38;;;;;;;18.29;51.08;99417.19;8431351;28;20048;-76
2022/07/16 08:00:43;;;;;;;3.63;1.05;;;;;;;18.37;50.05;99418.94;8423665;28;20055;-73
2022/07/16 08:04:44;;;;;;;4.45;1.15;;;;;;;18.36;51.21;99422.81;8424180;28;20407;-75
2022/07/16 08:08:45;;;;;;;6.03;0.90;;;;;;;18.45;49.24;99415.25;8411818;28;20048;-74
2022/07/16 08:12:46;;;;;;;2.95;0.90;;;;;;;18.64;49.65;99411.84;8425921;28;20047;-74
2022/07/16 08:16:50;;;;;;;3.38;0.90;;;;;;;18.90;49.93;99410.13;8423097;28;20182;-74
2022/07/16 08:20:51;;;;;;;2.63;0.90;;;;;;;19.09;47.55;99417.56;8425105;28;20055;-74
2022/07/16 08:29:11;;;;;;;;;;;;;;;19.17;48.61;99407.56;8430546;28;20093;-73
2022/07/16 08:33:15;;;;;;;3.60;0.80;;;;;;;19.39;49.02;99399.47;8430728;28;20300;-74
2022/07/16 08:37:30;;;;;;;2.35;1.00;;;;;;;19.55;47.07;99391.19;8429386;28;20263;-75
2022/07/16 08:41:31;;;;;;;3.25;1.00;;;;;;;19.53;46.62;99393.50;8430320;28;20504;-74
2022/07/16 08:45:32;;;;;;;5.85;0.70;;;;;;;19.59;46.38;99397.53;8416421;28;20523;-74
2022/07/16 08:49:34;;;;;;;2.08;0.70;;;;;;;19.78;47.10;99394.75;8411813;28;20101;-74
2022/07/16 08:53:37;;;;;;;1.73;0.70;;;;;;;19.95;45.38;99387.25;8410865;28;20067;-73
2022/07/16 08:57:39;;;;;;;8.32;0.90;;;;;;;19.88;44.38;99392.63;8426300;28;20040;-74
2022/07/16 09:01:42;;;;;;;1.80;0.93;;;;;;;19.86;45.67;99400.41;8412542;28;20131;-74
2022/07/16 09:05:43;;;;;;;2.33;0.60;;;;;;;19.88;46.10;99387.13;8404815;28;20461;-73
2022/07/16 09:09:45;;;;;;;2.60;0.98;;;;;;;19.85;44.90;99387.84;8428804;28;20051;-73
2022/07/16 09:14:01;;;;;;;2.65;0.75;;;;;;;19.66;45.43;99381.25;8428556;28;20127;-72
2022/07/16 09:18:15;;;;;;;1.00;0.50;;;;;;;19.64;46.06;99378.06;8423338;28;20074;-73
2022/07/16 09:22:18;;;;;;;3.78;0.88;;;;;;;19.57;46.11;99377.91;8429304;28;20043;-72
2022/07/16 09:26:23;;;;;;;2.53;0.95;;;;;;;19.50;45.27;99380.53;8376805;28;20078;-72
2022/07/16 09:30:25;;;;;;;0.63;0.50;;;;;;;19.49;45.35;99376.19;8429230;28;20059;-73
2022/07/16 09:34:26;;;;;;;3.03;0.60;;;;;;;19.38;44.55;99375.16;8383511;28;20515;-73
2022/07/16 09:38:30;;;;;;;3.33;0.82;;;;;;;19.23;44.02;99362.34;8428847;28;20052;-73
2022/07/16 09:42:37;;;;;;;5.22;0.90;;;;;;;19.23;44.57;99373.28;8393345;28;20124;-74
2022/07/16 09:46:39;;;;;;;7.50;1.13;;;;;;;19.29;43.20;99377.34;8419412;28;20396;-75
2022/07/16 09:50:40;;;;;;;3.67;0.90;;;;;;;19.24;44.75;99374.88;8390285;28;20043;-74
2022/07/16 09:54:41;;;;;;;3.67;0.90;;;;;;;19.20;44.18;99357.56;8427530;28;20059;-74
2022/07/16 09:58:47;;;;;;;4.78;1.30;;;;;;;19.26;45.09;99361.59;8416675;28;20477;-75
2022/07/16 10:02:48;;;;;;;2.55;1.00;;;;;;;19.36;45.34;99366.50;8428291;28;20040;-73
2022/07/16 10:06:49;;;;;;;3.60;0.82;;;;;;;19.41;45.48;99366.22;8356620;28;20057;-74
2022/07/16 10:10:53;;;;;;;3.95;1.17;;;;;;;19.46;44.51;99365.94;8356256;28;20057;-74
2022/07/16 10:14:59;;;;;;;2.05;0.85;;;;;;;19.48;44.60;99352.69;8355939;28;20088;-74
2022/07/16 10:19:00;;;;;;;4.85;1.10;;;;;;;19.40;44.59;99367.38;8337236;28;20049;-73
2022/07/16 10:23:07;;;;;;;5.53;1.15;;;;;;;19.33;45.56;99357.06;8356706;28;20053;-74
2022/07/16 10:27:34;;;;;;;2.50;0.90;;;;;;;19.33;46.84;99359.81;8307851;28;20107;-74
2022/07/16 10:32:26;;;;;;;3.47;0.93;;;;;;;19.39;46.31;99365.81;8356977;28;20076;-74
2022/07/16 10:36:04;;;;;;;2.42;1.27;;;;;;;19.32;46.11;99355.50;8356544;28;20667;-73
2022/07/16 10:40:08;;;;;;;2.60;0.60;;;;;;;19.16;46.30;99351.22;8304666;28;20077;-73
2022/07/16 10:44:12;;;;;;;4.07;1.10;;;;;;;19.02;46.94;99350.94;8373698;28;20059;-74
2022/07/16 10:48:15;;;;;;;4.57;1.08;;;;;;;18.84;46.57;99365.03;8426142;28;20052;-73
2022/07/16 10:52:18;;;;;;;5.40;0.80;;;;;;;18.73;47.29;99361.25;8422306;28;20050;-73
2022/07/16 10:56:42;;;;;;;6.43;1.15;;;;;;;18.71;47.42;99363.56;8425920;28;20438;-74
2022/07/16 11:00:43;;;;;;;2.20;1.02;;;;;;;18.60;47.97;99368.00;8413325;28;20051;-75
2022/07/16 11:04:47;;;;;;;5.13;1.00;;;;;;;18.49;50.17;99416.13;8409413;28;20475;-73
2022/07/16 11:08:58;;;;;;;10.55;1.10;;;;;;;18.31;55.79;99436.75;8427570;28;20055;-72
2022/07/16 11:13:00;;;;;;;5.10;1.05;;;;;;;18.20;61.38;99443.88;8405409;28;20127;-73
2022/07/16 11:17:02;;;;;;;2.00;1.10;;;;;;;18.18;64.70;99435.25;8421353;28;20046;-73
2022/07/16 11:21:07;;;;;;;4.22;1.10;;;;;;;18.10;66.36;99443.28;8426195;28;20052;-72
2022/07/16 11:25:11;;;;;;;8.75;1.55;;;;;;;17.90;66.97;99433.34;8419663;28;20060;-73
2022/07/16 11:29:11;;;;;;;10.40;1.50;;;;;;;17.80;67.18;99439.34;8407752;28;20036;-71
2022/07/16 11:33:30;;;;;;;8.63;1.85;;;;;;;18.12;65.47;99437.47;8430685;28;20484;-73
2022/07/16 11:38:07;;;;;;;8.07;2.08;;;;;;;18.60;65.18;99428.16;8397925;28;20051;-74
2022/07/16 11:42:09;;;;;;;7.28;1.40;;;;;;;18.97;64.07;99421.22;8226262;28;20053;-75
2022/07/16 11:46:20;;;;;;;6.35;1.35;;;;;;;19.25;61.96;99403.81;8244077;28;20078;-73
2022/07/16 11:50:28;;;;;;;3.45;1.38;;;;;;;19.48;60.73;99402.00;8259575;28;20054;-75
2022/07/16 11:54:30;;;;;;;5.18;1.38;;;;;;;19.47;57.57;99392.19;8262913;28;20198;-75
2022/07/16 11:58:32;;;;;;;3.20;1.70;;;;;;;19.13;58.30;99412.19;8245245;28;20616;-73
2022/07/16 12:02:43;;;;;;;6.78;1.13;;;;;;;18.64;58.96;99426.31;8260507;28;20062;-75
2022/07/16 12:06:49;;;;;;;5.75;1.77;;;;;;;18.41;60.67;99458.91;8248448;28;20070;-75
2022/07/16 12:11:05;;;;;;;4.65;1.70;;;;;;;17.82;66.00;99469.81;8230797;28;20137;-75
2022/07/16 12:15:15;;;;;;;6.07;1.88;;;;;;;17.21;70.51;99467.22;8332665;28;20055;-74
2022/07/16 12:19:16;;;;;;;5.45;1.80;;;;;;;16.96;73.35;99465.66;8431115;28;20048;-74
2022/07/16 12:23:32;;;;;;;7.50;1.70;;;;;;;16.96;75.16;99465.66;8430846;28;20054;-75
2022/07/16 12:27:50;;;;;;;5.15;1.80;;;;;;;16.73;76.08;99467.25;8423637;28;20047;-74
2022/07/16 12:31:51;;;;;;;;;;;;;;;16.66;76.60;99453.38;8417294;28;20048;-74
2022/07/16 12:36:27;;;;;;;13.80;2.45;;;;;;;16.57;78.46;99463.56;8427695;28;20329;-73
2022/07/16 12:40:28;;;;;;;7.85;2.10;;;;;;;16.43;79.20;99461.97;8396790;28;20056;-76
2022/07/16 12:44:29;;;;;;;6.43;2.40;;;;;;;16.48;79.48;99461.75;8412222;28;20514;-75
2022/07/16 12:48:32;;;;;;;5.47;2.22;;;;;;;16.64;80.35;99463.84;8429356;28;20040;-74
2022/07/16 12:52:33;;;;;;;8.82;2.90;;;;;;;16.79;81.50;99474.06;8429446;28;20059;-73
2022/07/16 13:00:54;;;;;;;7.20;2.00;;;;;;;17.11;81.04;99451.31;8358152;28;20053;-73
2022/07/16 13:04:56;;;;;;;3.80;2.35;;;;;;;17.30;80.54;99454.25;8334258;28;20103;-76
2022/07/16 13:08:57;;;;;;;4.95;1.60;;;;;;;17.69;77.95;99454.63;8353141;28;20045;-72
2022/07/16 13:12:59;;;;;;;1.67;1.20;;;;;;;17.76;74.42;99449.38;8355808;28;20051;-73
2022/07/16 13:17:00;;;;;;;1.52;1.00;;;;;;;17.92;73.35;99442.00;8357465;28;20056;-72
2022/07/16 13:21:02;;;;;;;1.70;0.90;;;;;;;18.12;72.32;99441.00;8323084;28;20051;-72
2022/07/16 13:25:04;;;;;;;2.35;0.93;;;;;;;18.06;69.25;99442.38;8340359;28;20048;-72
2022/07/16 13:29:05;;;;;;;2.17;1.17;;;;;;;18.14;69.36;99444.16;8361989;28;20051;-72
2022/07/16 13:33:06;;;;;;;2.78;1.10;;;;;;;18.40;69.10;99445.63;8424262;28;20411;-72
2022/07/16 13:37:07;;;;;;;2.08;1.13;;;;;;;18.73;67.74;99443.31;8406640;28;20045;-72
2022/07/16 13:41:12;;;;;;;2.97;1.13;;;;;;;19.80;63.89;99430.84;8365612;28;20056;-73
2022/07/16 13:45:15;;;;;;;2.67;1.10;;;;;;;20.52;59.90;99444.69;8404578;28;20462;-73
2022/07/16 13:49:16;;;;;;;2.28;1.00;;;;;;;21.39;55.41;99429.97;8388195;28;20060;-73
2022/07/16 13:53:17;;;;;;;2.05;1.30;;;;;;;22.62;53.00;99426.19;8413279;28;20090;-73
2022/07/16 14:01:57;;;;;;;2.30;1.20;;;;;;;25.26;45.28;99441.22;8334035;28;20053;-72
2022/07/16 14:06:01;;;;;;;1.60;1.02;;;;;;;24.11;46.18;99449.06;8300577;28;20037;-72
2022/07/16 14:10:04;;;;;;;2.90;1.55;;;;;;;22.29;50.43;99452.63;8314188;28;20058;-72
2022/07/16 14:14:06;;;;;;;11.88;1.90;;;;;;;20.87;59.10;99537.03;8308436;28;20104;-74
2022/07/16 14:18:09;;;;;;;7.53;1.90;;;;;;;18.86;64.48;99537.88;8340308;28;20049;-75
2022/07/16 14:22:12;;;;;;;26.50;2.50;;;;;;;17.64;69.33;99517.69;8357029;28;20045;-75
2022/07/16 14:26:14;;;;;;;9.63;1.60;;;;;;;17.39;71.11;99505.19;8345821;28;20122;-73
2022/07/16 14:30:15;;;;;;;10.23;2.00;;;;;;;17.37;71.72;99529.31;8292193;28;20489;-74
2022/07/16 14:34:17;;;;;;;4.00;1.40;;;;;;;17.20;72.27;99547.50;8324835;28;20080;-74
2022/07/16 14:38:18;;;;;;;9.27;1.90;;;;;;;17.19;73.46;99535.00;8356335;28;20059;-74
2022/07/16 14:42:19;;;;;;;4.78;1.45;;;;;;;18.83;70.63;99519.41;8375232;28;20060;-75
2022/07/16 14:46:21;;;;;;;7.90;1.50;;;;;;;21.09;63.97;99511.50;8390839;28;20055;-76
2022/07/16 14:50:22;;;;;;;5.05;1.35;;;;;;;20.09;65.07;99514.41;8414061;28;20048;-74
2022/07/16 14:54:23;;;;;;;7.53;1.60;;;;;;;20.38;65.77;99515.78;8347962;28;20060;-75
2022/07/16 14:58:25;;;;;;;4.78;1.17;;;;;;;22.01;61.11;99512.81;8390835;28;20049;-75
2022/07/16 15:02:26;;;;;;;4.45;1.55;;;;;;;23.21;58.78;99529.75;8384429;28;20106;-75
2022/07/16 15:06:27;;;;;;;5.43;1.50;;;;;;;25.49;53.25;99521.72;8386266;28;20048;-75
2022/07/16 15:10:28;;;;;;;5.30;1.27;;;;;;;26.97;48.06;99518.63;8374470;28;20068;-75
2022/07/16 15:26:42;;;;;;;2.50;1.17;;;;;;;24.22;49.87;99532.66;8423862;27;20409;-71
2022/07/16 15:30:43;;;;;;;2.25;1.25;;;;;;;21.95;56.32;99525.31;8424547;28;20052;-71
2022/07/16 15:34:44;;;;;;;2.47;1.00;;;;;;;21.47;59.24;99519.53;8393266;28;20087;-71
2022/07/16 15:38:47;;;;;;;2.70;1.20;;;;;;;23.03;55.94;99529.59;8407367;28;20044;-72
2022/07/16 15:42:48;;;;;;;2.85;1.30;;;;;;;24.59;51.56;99513.81;8412810;28;20534;-71
2022/07/16 15:46:49;;;;;;;5.53;1.40;;;;;;;23.36;54.92;99514.09;8422641;28;20101;-71
2022/07/16 15:50:50;;;;;;;5.40;1.30;;;;;;;21.87;59.14;99518.91;8420815;28;20048;-71
2022/07/16 15:54:52;;;;;;;11.45;1.40;;;;;;;21.13;61.08;99520.59;8423465;28;20045;-72
2022/07/16 15:58:52;;;;;;;4.75;1.38;;;;;;;20.58;62.23;99524.75;8422491;28;20064;-71
2022/07/16 16:02:53;;;;;;;4.75;1.42;;;;;;;20.10;63.94;99526.16;8424225;28;20044;-70
2022/07/16 16:06:54;;;;;;;2.55;1.80;;;;;;;19.65;65.54;99527.59;8419027;28;20423;-71
2022/07/16 16:10:57;;;;;;;7.38;2.80;;;;;;;19.83;65.25;99534.25;8418762;28;20054;-71
2022/07/16 16:14:58;;;;;;;3.78;1.80;;;;;;;19.78;64.81;99536.47;8423641;28;20044;-70
2022/07/16 16:19:01;;;;;;;3.90;1.85;;;;;;;19.57;66.15;99536.81;8423345;28;20052;-72
2022/07/16 16:23:02;;;;;;;3.03;1.70;;;;;;;19.50;66.33;99533.94;8423379;28;20045;-71
2022/07/16 16:27:03;;;;;;;3.17;1.70;;;;;;;19.39;66.74;99535.59;8391823;28;20094;-71
2022/07/16 16:31:04;;;;;;;5.45;1.48;;;;;;;19.37;66.30;99543.38;8411981;28;20190;-70
2022/07/16 16:35:05;;;;;;;2.83;1.30;;;;;;;19.29;66.37;99547.09;8399584;28;20431;-70
2022/07/16 16:39:10;;;;;;;3.75;1.50;;;;;;;19.12;67.22;99558.41;8398385;28;20044;-71
2022/07/16 16:43:13;;;;;;;3.15;1.20;;;;;;;19.11;68.02;99565.03;8396742;28;20052;-70
2022/07/16 16:47:14;;;;;;;2.95;1.40;;;;;;;19.05;67.19;99571.91;8399840;28;20036;-71
2022/07/16 16:51:15;;;;;;;3.65;1.20;;;;;;;18.91;67.51;99581.38;8374814;28;20072;-70
2022/07/16 16:55:16;;;;;;;4.15;2.00;;;;;;;18.65;68.80;99583.81;8389578;28;20098;-72
2022/07/16 16:59:17;;;;;;;4.68;1.73;;;;;;;18.31;69.56;99595.34;8387087;28;20098;-70
2022/07/16 17:03:18;;;;;;;2.70;1.52;;;;;;;18.20;70.07;99599.72;8391801;28;20543;-70
2022/07/16 17:07:22;;;;;;;5.20;1.60;;;;;;;17.92;70.95;99611.41;8379357;28;20048;-71
2022/07/16 17:11:23;;;;;;;3.80;1.70;;;;;;;17.81;70.68;99615.78;8389204;28;20502;-70
2022/07/16 17:15:24;;;;;;;9.70;1.90;;;;;;;17.44;69.79;99616.91;8373626;28;20041;-70
2022/07/16 17:19:25;;;;;;;4.18;1.67;;;;;;;17.17;70.08;99618.38;8371411;28;20439;-70
2022/07/16 17:23:26;;;;;;;5.93;1.60;;;;;;;16.88;70.11;99611.16;8381295;28;20523;-70
2022/07/16 17:27:27;;;;;;;3.55;1.63;;;;;;;16.76;70.47;99624.78;8365846;28;20063;-72
2022/07/16 17:31:28;;;;;;;4.20;1.70;;;;;;;16.60;71.22;99626.53;8388266;28;20044;-70
2022/07/16 17:35:29;;;;;;;3.97;1.92;;;;;;;16.51;71.17;99625.78;8394808;28;20494;-70
2022/07/16 17:39:30;;;;;;;3.95;1.52;;;;;;;16.45;71.79;99634.16;8392712;28;20056;-70
2022/07/16 17:43:31;;;;;;;3.05;1.40;;;;;;;16.35;72.77;99637.31;8393677;28;20056;-70
2022/07/16 17:47:32;;;;;;;8.60;1.50;;;;;;;16.13;74.04;99645.81;8389521;28;20045;-71
2022/07/16 17:51:33;;;;;;;11.20;2.10;;;;;;;16.03;75.23;99648.94;8384252;28;20507;-70
2022/07/16 17:55:35;;;;;;;5.20;2.45;;;;;;;15.98;75.57;99654.56;8375956;28;20045;-71
2022/07/16 17:59:36;;;;;;;10.45;1.63;;;;;;;15.94;76.55;99653.66;8374095;28;20453;-71
2022/07/16 18:03:37;;;;;;;7.28;1.80;;;;;;;15.94;76.63;99661.81;8364905;28;20044;-71
2022/07/16 18:07:39;;;;;;;4.60;2.00;;;;;;;15.98;77.15;99665.47;8381573;28;20051;-71
2022/07/16 18:11:40;;;;;;;11.73;2.20;;;;;;;16.04;76.89;99664.97;8393861;28;20064;-71
2022/07/16 18:15:41;;;;;;;5.47;2.38;;;;;;;16.08;76.97;99665.09;8377600;28;20612;-71
2022/07/16 18:19:42;;;;;;;6.97;2.28;;;;;;;15.86;77.78;99673.59;8362896;28;20051;-72
2022/07/16 18:23:43;;;;;;;4.72;2.25;;;;;;;15.66;78.45;99674.31;8364016;28;20057;-72
2022/07/16 18:27:44;;;;;;;8.98;3.45;;;;;;;15.50;79.00;99682.19;8394376;28;20036;-72
2022/07/16 18:31:45;;;;;;;3.20;2.40;;;;;;;15.38;79.54;99685.63;8386291;28;20407;-73
2022/07/16 18:35:46;;;;;;;5.10;2.08;;;;;;;15.26;79.71;99682.78;8369179;28;20048;-72
2022/07/16 18:39:47;;;;;;;5.13;2.20;;;;;;;15.18;80.01;99686.31;8383282;28;20507;-72
2022/07/16 18:43:48;;;;;;;5.55;2.30;;;;;;;15.07;80.28;99706.84;8388303;28;20060;-72
2022/07/16 18:47:49;;;;;;;5.78;2.28;;;;;;;14.95;80.68;99698.56;8387847;28;20044;-71
2022/07/16 18:51:50;;;;;;;5.57;2.25;;;;;;;14.86;80.57;99706.72;8321134;28;20040;-71
2022/07/16 18:55:51;;;;;;;9.85;2.25;;;;;;;14.73;80.56;99722.09;8386909;28;20403;-72
2022/07/16 18:59:52;;;;;;;7.03;2.05;;;;;;;14.62;80.47;99723.53;8392732;28;20041;-71
2022/07/16 19:03:53;;;;;;;4.97;2.45;;;;;;;14.47;80.85;99732.19;8385572;28;20116;-71
2022/07/16 19:07:55;;;;;;;4.10;2.20;;;;;;;14.34;81.09;99742.03;8403171;28;20265;-71
2022/07/16 19:11:57;;;;;;;5.63;2.42;;;;;;;14.24;81.23;99749.69;8389934;28;20419;-71
2022/07/16 19:15:58;;;;;;;8.40;2.42;;;;;;;14.18;81.02;99761.81;8385690;28;20049;-72
2022/07/16 19:19:59;;;;;;;7.28;2.00;;;;;;;13.99;81.13;99770.25;8384150;28;20044;-71
2022/07/16 19:24:01;;;;;;;4.85;2.13;;;;;;;13.87;81.16;99778.19;8384286;28;20060;-71
2022/07/16 19:28:02;;;;;;;5.10;2.40;;;;;;;13.76;81.03;99783.09;8372702;28;20504;-70
2022/07/16 19:32:04;;;;;;;3.03;2.00;;;;;;;13.66;81.08;99783.38;8347176;28;20491;-71